Time;durP1;ratioP1;P1;durP2;ratioP2;P2;SDS_P1;SDS_P2;PMS_P1;PMS_P2;Temp;Humidity;BMP_temperature;BMP_pressure;BME280_temperature;BME280_humidity;BME280_pressure;Samples;Min_cycle;Max_cycle;Signal;HPM_P1;HPM_P2
2023/04/20 00:02:50;;;;;;;5.50;5.00;;;;;;;8.35;52.04;98771.06;7001748;28;20677;-81
2023/04/20 00:06:12;;;;;;;8.77;6.03;;;;;;;6.88;56.00;98759.88;7004090;28;20221;-85
2023/04/20 00:09:38;;;;;;;5.87;5.27;;;;;;;8.07;54.66;98763.94;6994337;28;20209;-85
2023/04/20 00:13:00;;;;;;;6.17;5.57;;;;;;;8.39;53.29;98736.59;7003187;28;20253;-81
2023/04/20 00:16:21;;;;;;;9.87;6.37;;;;;;;8.52;53.17;98761.72;7001621;28;20662;-80
2023/04/20 00:19:47;;;;;;;5.47;4.97;;;;;;;8.59;52.20;98725.00;7001734;28;20316;-85
2023/04/20 00:23:08;;;;;;;8.73;7.30;;;;;;;8.11;52.76;98747.25;7002742;28;20257;-78
2023/04/20 00:26:31;;;;;;;7.20;5.67;;;;;;;7.78;53.79;98743.38;7006382;28;20237;-81
2023/04/20 00:29:52;;;;;;;6.30;5.33;;;;;;;8.03;54.01;98728.59;7006469;28;20251;-82
2023/04/20 00:33:14;;;;;;;8.67;6.67;;;;;;;7.82;53.81;98725.88;6991230;28;20360;-80
2023/04/20 00:36:35;;;;;;;5.93;5.23;;;;;;;8.11;53.73;98741.03;7002012;28;20848;-81
2023/04/20 00:40:00;;;;;;;5.20;4.70;;;;;;;8.23;53.24;98704.63;7004206;28;20205;-84
2023/04/20 00:43:38;;;;;;;6.07;4.77;;;;;;;7.69;51.88;98658.66;7006106;28;20221;-86
2023/04/20 00:46:59;;;;;;;7.77;5.00;;;;;;;7.75;53.11;98695.44;7009932;28;20229;-81
2023/04/20 00:50:21;;;;;;;8.77;6.23;;;;;;;8.08;53.00;98710.03;7007792;28;20202;-81
2023/04/20 00:53:42;;;;;;;5.37;4.87;;;;;;;7.80;53.05;98703.78;7006745;28;20317;-81
2023/04/20 00:57:04;;;;;;;7.20;5.03;;;;;;;6.73;54.28;98643.00;7007131;28;20713;-81
2023/04/20 01:00:27;;;;;;;7.03;5.03;;;;;;;6.92;56.59;98709.44;7006629;28;20209;-81
2023/04/20 01:03:49;;;;;;;5.20;4.80;;;;;;;7.69;54.84;98690.84;7005979;28;20292;-81
2023/04/20 01:07:10;;;;;;;6.20;4.73;;;;;;;7.45;54.01;98690.34;7007034;28;20305;-81
2023/04/20 01:10:32;;;;;;;5.30;4.80;;;;;;;7.00;56.12;98698.59;7005703;28;20295;-81
2023/04/20 01:13:53;;;;;;;8.23;4.87;;;;;;;7.49;55.02;98679.03;6978507;28;20233;-81
2023/04/20 01:17:16;;;;;;;5.90;5.17;;;;;;;6.89;54.79;98653.53;6979553;28;20641;-81
2023/04/20 01:20:38;;;;;;;7.53;4.90;;;;;;;7.28;55.48;98681.69;6979276;28;20213;-81
2023/04/20 01:24:01;;;;;;;10.23;6.93;;;;;;;7.28;54.33;98630.75;6977758;28;20222;-81
2023/04/20 01:27:22;;;;;;;6.40;5.00;;;;;;;7.32;54.18;98648.09;6979075;28;20268;-81
2023/04/20 01:30:44;;;;;;;7.27;4.43;;;;;;;7.61;53.49;98657.94;6991389;28;20214;-81
2023/04/20 01:34:06;;;;;;;5.40;4.50;;;;;;;6.99;53.84;98644.19;7005515;28;20290;-81
2023/04/20 01:37:27;;;;;;;7.47;5.00;;;;;;;6.60;55.30;98665.06;7004888;28;20202;-81
2023/04/20 01:40:51;;;;;;;6.17;5.20;;;;;;;6.77;55.84;98620.19;7004827;28;20288;-82
2023/04/20 01:44:12;;;;;;;6.03;4.80;;;;;;;7.32;54.07;98632.00;7004092;28;20271;-81
2023/04/20 01:47:34;;;;;;;6.27;5.20;;;;;;;7.48;53.78;98617.56;7003906;28;20859;-81
2023/04/20 01:50:56;;;;;;;6.97;6.33;;;;;;;7.57;53.63;98644.06;7005005;28;20208;-82
2023/04/20 01:54:17;;;;;;;5.93;4.60;;;;;;;7.10;54.21;98626.78;7004342;28;20234;-81
2023/04/20 01:57:40;;;;;;;7.33;4.63;;;;;;;6.95;54.33;98634.03;7005183;28;20227;-81
2023/04/20 02:01:02;;;;;;;5.50;4.60;;;;;;;7.28;53.68;98627.22;7005053;28;20224;-82
2023/04/20 02:04:25;;;;;;;7.27;4.77;;;;;;;7.00;53.04;98568.13;7003695;28;20245;-81
2023/04/20 02:20:39;;;;;;;5.33;4.83;;;;;;;6.84;54.38;98624.59;6980817;28;20197;-80
2023/04/20 02:24:00;;;;;;;5.17;4.67;;;;;;;6.69;54.27;98591.66;7004560;28;20312;-81
2023/04/20 02:27:22;;;;;;;6.20;5.60;;;;;;;6.55;54.59;98615.75;7007619;28;20308;-82
2023/04/20 02:30:43;;;;;;;6.20;5.60;;;;;;;5.94;56.47;98558.00;7008750;28;20325;-81
2023/04/20 02:38:22;;;;;;;5.70;5.20;;;;;;;6.66;55.24;98610.75;7005796;28;20173;-81
2023/04/20 02:41:44;;;;;;;8.60;5.60;;;;;;;6.16;55.70;98586.56;7007703;28;20657;-83
2023/04/20 02:45:07;;;;;;;6.23;5.63;;;;;;;6.01;56.06;98566.13;7006846;28;20274;-82
2023/04/20 02:48:28;;;;;;;7.57;6.00;;;;;;;6.29;56.63;98608.16;7005820;28;20239;-82
2023/04/20 02:56:08;;;;;;;6.23;5.63;;;;;;;5.96;55.35;98604.13;7004781;28;20183;-83
2023/04/20 02:59:29;;;;;;;7.00;5.43;;;;;;;5.32;56.58;98548.44;7006252;28;20209;-82
2023/04/20 03:02:51;;;;;;;8.43;5.80;;;;;;;6.23;56.71;98557.19;7007341;28;20283;-83
2023/04/20 03:06:13;;;;;;;9.13;6.07;;;;;;;6.67;55.32;98561.50;7003485;28;20213;-82
2023/04/20 03:09:34;;;;;;;6.50;5.90;;;;;;;5.86;56.38;98581.31;6979960;28;20205;-82
2023/04/20 03:12:57;;;;;;;8.07;6.13;;;;;;;5.86;57.31;98538.50;6979413;28;20285;-82
2023/04/20 03:16:19;;;;;;;6.40;5.77;;;;;;;6.77;55.70;98569.28;6979215;28;20211;-82
2023/04/20 03:19:41;;;;;;;5.73;5.13;;;;;;;6.54;54.42;98549.81;6979051;28;20205;-82
2023/04/20 03:23:02;;;;;;;5.70;5.20;;;;;;;6.39;54.82;98557.84;6979725;28;20226;-82
2023/04/20 03:26:24;;;;;;;6.00;5.50;;;;;;;6.66;54.78;98559.03;6979641;28;20248;-82
2023/04/20 03:29:47;;;;;;;5.63;5.13;;;;;;;7.02;54.53;98571.44;6978279;28;20539;-83
2023/04/20 03:33:09;;;;;;;8.77;5.60;;;;;;;6.90;53.90;98566.75;6978916;28;20222;-82
2023/04/20 03:36:30;;;;;;;8.00;5.97;;;;;;;6.74;54.17;98564.28;6979227;28;20245;-82
2023/04/20 03:39:52;;;;;;;9.50;6.17;;;;;;;6.52;54.02;98539.28;6979109;28;20216;-82
2023/04/20 03:43:13;;;;;;;7.97;5.73;;;;;;;6.22;55.02;98567.09;6978816;28;20263;-81
2023/04/20 03:46:36;;;;;;;6.97;5.60;;;;;;;6.35;55.42;98569.94;6979743;28;20654;-82
2023/04/20 03:49:58;;;;;;;10.20;8.03;;;;;;;6.46;54.80;98525.78;6978444;28;20239;-81
2023/04/20 03:53:20;;;;;;;6.67;5.73;;;;;;;6.79;54.01;98549.31;7002056;28;20236;-81
2023/04/20 03:56:43;;;;;;;7.43;6.20;;;;;;;6.71;54.49;98551.28;7007336;28;20219;-81
2023/04/20 04:00:06;;;;;;;11.40;8.57;;;;;;;6.52;53.99;98539.28;7006063;28;20204;-82
2023/04/20 04:03:29;;;;;;;7.43;6.30;;;;;;;6.22;54.54;98508.19;7005789;28;20605;-82
2023/04/20 04:06:50;;;;;;;7.67;5.30;;;;;;;6.00;55.65;98517.13;7006347;28;20258;-81
2023/04/20 04:10:12;;;;;;;6.57;5.97;;;;;;;6.41;54.05;98442.50;7006315;28;20699;-81
2023/04/20 04:13:33;;;;;;;7.23;5.60;;;;;;;6.66;54.13;98532.25;7006567;28;20310;-81
2023/04/20 04:16:55;;;;;;;6.10;5.50;;;;;;;6.91;53.84;98552.34;7006000;28;20228;-82
2023/04/20 04:20:19;;;;;;;7.30;5.90;;;;;;;6.94;53.51;98554.63;7004851;28;20238;-81
2023/04/20 04:23:41;;;;;;;7.10;6.07;;;;;;;6.58;53.60;98519.78;7005249;28;20222;-81
2023/04/20 04:27:04;;;;;;;6.70;5.63;;;;;;;6.51;53.60;98521.56;7005452;28;20232;-82
2023/04/20 04:30:26;;;;;;;7.33;5.43;;;;;;;6.56;53.53;98547.78;6999553;28;20231;-82
2023/04/20 04:33:48;;;;;;;7.00;6.03;;;;;;;4.94;56.05;98487.94;6975821;28;20228;-85
2023/04/20 04:37:13;;;;;;;6.70;6.00;;;;;;;5.66;57.59;98554.19;6982329;28;20205;-82
2023/04/20 04:40:51;;;;;;;7.77;7.00;;;;;;;6.28;56.21;98544.09;7008025;28;20216;-87
2023/04/20 04:44:14;;;;;;;6.17;5.60;;;;;;;6.56;54.83;98559.34;7005400;28;20220;-81
2023/04/20 04:47:36;;;;;;;6.30;5.70;;;;;;;6.16;54.80;98553.59;7005127;28;20209;-83
2023/04/20 04:54:36;;;;;;;7.53;6.30;;;;;;;5.52;55.72;98500.69;6996532;28;20229;-83
2023/04/20 04:57:58;;;;;;;7.97;5.97;;;;;;;5.59;57.05;98517.66;6999919;28;20197;-83
2023/04/20 05:01:20;;;;;;;10.23;7.03;;;;;;;5.48;56.83;98492.19;6977246;28;20240;-83
2023/04/20 05:04:41;;;;;;;8.73;7.07;;;;;;;6.09;56.01;98553.50;6996992;28;20262;-83
2023/04/20 05:08:03;;;;;;;8.23;6.47;;;;;;;5.77;56.70;98555.63;7004498;28;20209;-83
2023/04/20 05:11:26;;;;;;;8.30;6.73;;;;;;;5.66;56.67;98546.19;7008250;28;20238;-83
2023/04/20 05:14:48;;;;;;;7.90;7.20;;;;;;;5.51;56.82;98491.00;7010340;28;20310;-82
2023/04/20 05:18:09;;;;;;;7.97;6.53;;;;;;;5.81;56.32;98506.97;7016002;28;20220;-83
2023/04/20 05:21:31;;;;;;;8.63;7.60;;;;;;;5.94;55.95;98549.13;7011476;28;20649;-83
2023/04/20 05:24:53;;;;;;;7.10;6.40;;;;;;;6.13;56.13;98551.28;7009781;28;20230;-83
2023/04/20 05:28:16;;;;;;;14.10;7.40;;;;;;;6.28;55.68;98530.69;7009608;28;20220;-83
2023/04/20 05:31:38;;;;;;;6.70;6.00;;;;;;;6.28;55.60;98496.75;7009778;28;20246;-84
2023/04/20 05:34:59;;;;;;;8.47;6.10;;;;;;;6.53;54.33;98553.50;7008814;28;20761;-85
2023/04/20 05:38:21;;;;;;;6.93;6.23;;;;;;;6.52;54.80;98517.88;7007883;28;20295;-84
2023/04/20 05:41:43;;;;;;;11.30;6.60;;;;;;;6.89;54.60;98482.03;7008121;28;20490;-88
2023/04/20 05:45:07;;;;;;;7.23;6.53;;;;;;;7.17;53.90;98513.25;7009794;28;20254;-83
2023/04/20 05:48:30;;;;;;;7.90;6.87;;;;;;;7.31;53.71;98490.09;7010606;28;20242;-87
2023/04/20 05:51:51;;;;;;;8.30;6.60;;;;;;;7.82;52.68;98497.75;7013128;28;20201;-86
2023/04/20 05:55:13;;;;;;;6.93;6.23;;;;;;;9.02;50.21;98542.88;7011475;28;20230;-85
2023/04/20 05:58:38;;;;;;;8.17;6.67;;;;;;;8.58;51.33;98478.81;7020135;28;20205;-86
2023/04/20 06:02:01;;;;;;;8.13;7.27;;;;;;;9.07;50.79;98535.03;7005419;28;20214;-83
2023/04/20 06:05:22;;;;;;;7.50;6.80;;;;;;;9.34;50.44;98510.69;7004314;28;20297;-83
2023/04/20 06:08:44;;;;;;;8.90;6.90;;;;;;;9.78;48.83;98517.16;6990284;28;20298;-83
2023/04/20 06:12:06;;;;;;;9.07;6.70;;;;;;;9.12;50.01;98495.75;6976601;28;20679;-83
2023/04/20 06:15:27;;;;;;;9.63;6.30;;;;;;;9.91;48.12;98527.06;6982241;28;20268;-80
2023/04/20 06:18:50;;;;;;;7.37;6.57;;;;;;;10.16;49.07;98507.41;7005145;28;20355;-81
2023/04/20 06:22:12;;;;;;;8.20;6.10;;;;;;;10.68;47.50;98488.41;6997572;28;20202;-80
2023/04/20 06:25:35;;;;;;;7.63;6.70;;;;;;;10.15;48.48;98453.75;6976637;28;20260;-81
2023/04/20 06:28:57;;;;;;;7.67;6.47;;;;;;;10.70;47.90;98512.47;6975740;28;20199;-80
2023/04/20 06:32:18;;;;;;;9.03;6.60;;;;;;;11.40;46.45;98513.13;6999762;28;20294;-80
2023/04/20 06:35:41;;;;;;;8.80;6.97;;;;;;;11.91;45.97;98486.00;7002756;28;20236;-80
2023/04/20 06:39:03;;;;;;;9.20;6.97;;;;;;;12.80;43.82;98463.63;7001238;28;20198;-80
2023/04/20 06:42:26;;;;;;;7.73;6.97;;;;;;;12.20;42.71;98490.72;6986986;28;20210;-81
2023/04/20 06:45:47;;;;;;;10.17;7.53;;;;;;;11.75;45.94;98500.06;6994594;28;20221;-80
2023/04/20 06:49:09;;;;;;;7.73;7.00;;;;;;;12.47;44.13;98481.28;7003598;28;20245;-81
2023/04/20 06:52:31;;;;;;;7.53;6.70;;;;;;;13.33;43.27;98497.06;7004613;28;20333;-80
2023/04/20 06:55:53;;;;;;;7.93;6.80;;;;;;;12.19;43.76;98506.13;7006175;28;20218;-82
2023/04/20 06:59:17;;;;;;;10.53;7.23;;;;;;;11.32;46.14;98507.16;7002925;28;20209;-79
2023/04/20 07:02:45;;;;;;;8.27;7.40;;;;;;;10.65;47.48;98506.88;7002100;28;20217;-79
2023/04/20 07:06:09;;;;;;;9.37;7.33;;;;;;;10.56;47.79;98492.81;7003367;28;20240;-81
2023/04/20 07:09:33;;;;;;;9.27;6.73;;;;;;;11.34;46.69;98491.59;7002663;28;20202;-78
2023/04/20 07:12:54;;;;;;;9.93;7.63;;;;;;;12.38;45.58;98483.47;6998313;28;20225;-78
2023/04/20 07:16:16;;;;;;;7.60;6.40;;;;;;;13.27;42.66;98479.03;6991279;28;20229;-79
2023/04/20 07:19:37;;;;;;;9.00;6.97;;;;;;;12.45;44.26;98488.81;6978248;28;20217;-79
2023/04/20 07:22:59;;;;;;;8.37;7.00;;;;;;;12.55;42.99;98454.78;7001881;28;20248;-79
2023/04/20 07:26:22;;;;;;;9.13;7.03;;;;;;;12.68;44.07;98497.88;7003080;28;20200;-79
2023/04/20 07:29:43;;;;;;;8.40;7.53;;;;;;;11.61;45.51;98480.44;7003697;28;20297;-79
2023/04/20 07:33:05;;;;;;;9.20;7.30;;;;;;;11.49;46.88;98503.75;7001486;28;20293;-79
2023/04/20 07:36:27;;;;;;;8.13;7.30;;;;;;;11.58;46.22;98445.75;7002303;28;20209;-80
2023/04/20 07:39:48;;;;;;;8.10;7.37;;;;;;;11.05;47.01;98497.59;7002813;28;20202;-78
2023/04/20 07:43:11;;;;;;;8.43;7.33;;;;;;;9.99;50.17;98498.06;6982157;28;20296;-82
2023/04/20 07:46:32;;;;;;;10.83;6.83;;;;;;;11.41;47.51;98497.78;7003115;28;20232;-80
2023/04/20 07:49:54;;;;;;;10.30;8.40;;;;;;;11.21;47.76;98502.50;7003752;28;20257;-82
2023/04/20 07:53:16;;;;;;;8.30;7.33;;;;;;;11.34;47.43;98505.91;7003441;28;20263;-83
2023/04/20 07:56:37;;;;;;;10.83;8.10;;;;;;;11.39;46.77;98500.69;7003432;28;20726;-83
2023/04/20 08:00:00;;;;;;;8.83;7.93;;;;;;;10.95;48.38;98506.16;6996325;28;20252;-80
2023/04/20 08:03:21;;;;;;;8.70;7.23;;;;;;;11.80;46.70;98489.44;6975825;28;20722;-79
2023/04/20 08:06:43;;;;;;;7.93;7.13;;;;;;;12.02;45.72;98496.91;6975532;28;20240;-80
2023/04/20 08:10:05;;;;;;;10.27;7.80;;;;;;;10.93;47.84;98485.81;6976259;28;20290;-79
2023/04/20 08:13:27;;;;;;;10.23;7.50;;;;;;;11.77;46.53;98493.41;6976127;28;20226;-82
2023/04/20 08:16:50;;;;;;;11.97;8.53;;;;;;;10.95;47.91;98499.91;7004788;28;20213;-80
2023/04/20 08:20:11;;;;;;;8.63;7.47;;;;;;;10.85;49.14;98486.88;7002895;28;20205;-80
2023/04/20 08:23:33;;;;;;;9.67;7.80;;;;;;;11.07;48.37;98480.16;7000521;28;20225;-81
2023/04/20 08:26:55;;;;;;;9.10;7.67;;;;;;;11.40;49.41;98483.44;7003284;28;20213;-80
2023/04/20 08:30:16;;;;;;;9.17;7.53;;;;;;;12.23;47.70;98493.78;7004918;28;20210;-82
2023/04/20 08:33:39;;;;;;;9.70;7.57;;;;;;;11.82;47.38;98482.78;6997146;28;20230;-80
2023/04/20 08:37:01;;;;;;;9.90;7.27;;;;;;;12.11;47.46;98479.34;6976828;28;20675;-83
2023/04/20 08:40:23;;;;;;;8.73;7.70;;;;;;;11.71;48.34;98479.94;6977130;28;20259;-79
2023/04/20 08:43:47;;;;;;;12.40;8.00;;;;;;;11.87;48.01;98484.78;6986877;28;20254;-81
2023/04/20 08:47:09;;;;;;;9.03;7.30;;;;;;;12.51;46.51;98480.59;6995086;28;20214;-81
2023/04/20 08:50:32;;;;;;;7.80;7.00;;;;;;;12.31;48.28;98471.06;7008682;28;20213;-81
2023/04/20 08:53:55;;;;;;;9.13;7.47;;;;;;;11.77;48.48;98479.91;7002935;28;20373;-80
2023/04/20 08:57:17;;;;;;;9.80;7.57;;;;;;;12.19;46.95;98460.16;7008594;28;20701;-80
2023/04/20 09:00:46;;;;;;;9.50;7.87;;;;;;;12.46;47.83;98458.81;7003099;28;20204;-81
2023/04/20 09:04:17;;;;;;;10.17;7.60;;;;;;;12.25;46.22;98475.50;7005795;28;20227;-80
2023/04/20 09:07:40;;;;;;;7.47;6.70;;;;;;;12.47;47.35;98470.47;6998579;28;20243;-81
2023/04/20 09:11:02;;;;;;;10.50;7.67;;;;;;;12.40;46.47;98458.91;7000505;28;20209;-81
2023/04/20 09:14:23;;;;;;;9.63;8.00;;;;;;;12.51;46.54;98463.56;6991666;28;20813;-80
2023/04/20 09:17:45;;;;;;;8.87;7.17;;;;;;;12.98;45.79;98451.97;6984672;28;20328;-81
2023/04/20 09:21:09;;;;;;;9.67;8.50;;;;;;;12.57;47.10;98470.78;7004015;28;20256;-80
2023/04/20 09:24:33;;;;;;;9.40;7.93;;;;;;;12.07;47.44;98450.31;7005448;28;20261;-80
2023/04/20 09:27:58;;;;;;;9.97;8.73;;;;;;;11.84;48.97;98467.16;7005078;28;20297;-80
2023/04/20 09:31:21;;;;;;;11.03;8.33;;;;;;;11.03;50.42;98457.34;7005819;28;20194;-80
2023/04/20 09:34:44;;;;;;;9.73;7.83;;;;;;;11.38;49.64;98452.31;6997662;28;20303;-80
2023/04/20 09:38:05;;;;;;;10.57;7.73;;;;;;;12.33;47.42;98447.34;6997333;28;20287;-80
2023/04/20 09:41:28;;;;;;;8.63;7.53;;;;;;;12.50;47.97;98432.16;6998424;28;20222;-80
2023/04/20 09:44:50;;;;;;;10.00;8.17;;;;;;;12.80;45.77;98438.47;6988947;28;20246;-80
2023/04/20 09:48:15;;;;;;;9.23;7.57;;;;;;;13.01;46.31;98443.38;6987753;28;20279;-80
2023/04/20 09:51:38;;;;;;;8.40;7.37;;;;;;;13.27;46.25;98437.63;6979398;28;20212;-80
2023/04/20 09:54:59;;;;;;;8.43;7.53;;;;;;;13.55;45.97;98444.03;6999915;28;20225;-80
2023/04/20 09:58:22;;;;;;;8.53;7.53;;;;;;;13.21;45.48;98435.84;7004304;28;20254;-80
2023/04/20 10:01:44;;;;;;;10.53;7.83;;;;;;;12.14;49.80;98440.25;7004078;28;20270;-81
2023/04/20 10:05:16;;;;;;;10.73;7.80;;;;;;;13.22;47.46;98430.16;7007389;28;20312;-83
2023/04/20 10:08:41;;;;;;;9.40;8.07;;;;;;;13.29;46.73;98446.31;7007501;28;20874;-81
2023/04/20 10:12:06;;;;;;;12.33;9.00;;;;;;;12.17;49.86;98458.75;7005069;28;20205;-80
2023/04/20 10:15:39;;;;;;;10.33;8.67;;;;;;;12.52;50.32;98447.09;6977574;28;20279;-80
2023/04/20 10:19:02;;;;;;;9.83;8.10;;;;;;;11.27;51.57;98401.78;6976601;28;20198;-79
2023/04/20 10:22:31;;;;;;;10.43;8.77;;;;;;;11.75;53.79;98446.88;6991785;28;20206;-82
2023/04/20 10:25:56;;;;;;;9.07;8.10;;;;;;;12.22;49.93;98431.88;6986732;28;20211;-81
2023/04/20 10:29:31;;;;;;;8.73;7.83;;;;;;;11.59;52.98;98442.03;6988487;28;20210;-82
2023/04/20 10:33:04;;;;;;;7.83;7.07;;;;;;;12.26;52.14;98422.25;6988260;28;20213;-82
2023/04/20 10:36:29;;;;;;;8.70;7.23;;;;;;;12.67;51.72;98433.19;7004733;28;20241;-82
2023/04/20 10:39:51;;;;;;;8.37;7.43;;;;;;;13.03;49.61;98416.91;7004460;28;20354;-80
2023/04/20 10:43:20;;;;;;;9.43;8.10;;;;;;;13.35;50.42;98429.16;7001762;28;20281;-80
2023/04/20 10:46:41;;;;;;;9.77;8.33;;;;;;;13.14;49.85;98413.44;7004904;28;20197;-79
2023/04/20 10:50:08;;;;;;;11.13;8.57;;;;;;;13.17;51.73;98407.56;7004170;28;20290;-80
2023/04/20 10:53:29;;;;;;;9.93;8.93;;;;;;;12.43;52.16;98410.63;7004177;28;20305;-80
2023/04/20 10:57:24;;;;;;;9.87;8.47;;;;;;;12.60;51.07;98289.13;7001065;28;20223;-81
2023/04/20 11:00:57;;;;;;;10.20;8.80;;;;;;;11.99;52.86;98381.16;6920857;28;20266;-80
2023/04/20 11:04:18;;;;;;;9.80;8.47;;;;;;;13.38;50.75;98371.81;6918480;28;20314;-80
2023/04/20 11:07:51;;;;;;;10.03;8.67;;;;;;;13.65;50.66;98383.88;6944410;28;20219;-80
2023/04/20 11:11:19;;;;;;;9.77;8.27;;;;;;;13.47;51.35;98340.63;6944665;28;20605;-82
2023/04/20 11:15:05;;;;;;;10.73;9.53;;;;;;;13.14;52.41;98340.34;6937285;28;20228;-81
2023/04/20 11:18:26;;;;;;;9.77;8.73;;;;;;;14.09;51.88;98348.03;6941351;28;20206;-80
2023/04/20 11:21:48;;;;;;;11.03;8.93;;;;;;;14.27;51.33;98353.34;6944843;28;21283;-81
2023/04/20 11:25:12;;;;;;;9.80;8.80;;;;;;;14.31;48.89;98335.50;6944168;28;20244;-81
2023/04/20 11:28:34;;;;;;;10.17;9.10;;;;;;;13.70;48.90;98336.03;6931206;28;20218;-81
2023/04/20 11:31:56;;;;;;;11.37;9.37;;;;;;;14.51;50.10;98335.94;6934775;28;20217;-81
2023/04/20 11:35:18;;;;;;;9.73;8.73;;;;;;;14.67;49.21;98305.28;6936569;28;20311;-80
2023/04/20 11:38:39;;;;;;;9.67;8.70;;;;;;;14.12;48.21;98339.41;6999270;28;20551;-80
2023/04/20 11:42:03;;;;;;;10.17;8.97;;;;;;;14.12;49.30;98328.56;7002903;28;20362;-80
2023/04/20 11:45:24;;;;;;;9.90;8.90;;;;;;;13.51;48.65;98320.97;7003116;28;20221;-81
2023/04/20 11:48:46;;;;;;;8.43;7.63;;;;;;;14.23;45.80;98350.25;6991000;28;20276;-81
2023/04/20 11:52:08;;;;;;;8.10;7.40;;;;;;;13.01;48.77;98287.28;6988821;28;20209;-81
2023/04/20 11:55:29;;;;;;;8.60;7.80;;;;;;;12.77;48.81;98273.88;7000555;28;20247;-81
2023/04/20 11:58:52;;;;;;;10.00;8.00;;;;;;;13.29;50.17;98346.16;7003673;28;20338;-81
2023/04/20 12:02:14;;;;;;;8.20;7.40;;;;;;;13.41;48.98;98364.06;7002169;28;20261;-80
2023/04/20 12:05:35;;;;;;;8.63;7.73;;;;;;;13.58;48.48;98359.59;6991510;28;20310;-80
2023/04/20 12:08:57;;;;;;;8.83;7.93;;;;;;;13.45;48.30;98340.06;6982576;28;20284;-80
2023/04/20 12:12:18;;;;;;;8.93;7.60;;;;;;;13.82;49.56;98363.13;6986984;28;20668;-82
2023/04/20 12:15:41;;;;;;;8.00;7.23;;;;;;;12.71;49.69;98345.97;7002972;28;20228;-81
2023/04/20 12:19:03;;;;;;;7.83;7.03;;;;;;;12.48;50.92;98353.16;7005510;28;20290;-81
2023/04/20 12:22:24;;;;;;;8.27;7.20;;;;;;;13.40;48.32;98365.09;7007507;28;20209;-82
2023/04/20 12:25:46;;;;;;;8.70;7.20;;;;;;;13.17;49.44;98362.34;7008214;28;20232;-82
2023/04/20 12:29:07;;;;;;;8.70;7.63;;;;;;;12.54;51.43;98341.41;7008716;28;20203;-84
2023/04/20 12:32:30;;;;;;;7.63;6.67;;;;;;;12.65;50.83;98354.16;7005281;28;20347;-84
2023/04/20 12:35:52;;;;;;;8.07;7.33;;;;;;;12.88;50.23;98351.56;7005405;28;20222;-84
2023/04/20 12:39:14;;;;;;;7.53;6.83;;;;;;;13.04;50.69;98356.34;6985161;28;20298;-84
2023/04/20 12:42:35;;;;;;;7.53;6.83;;;;;;;12.59;49.97;98342.41;7007152;28;20204;-84
2023/04/20 12:45:57;;;;;;;6.93;6.30;;;;;;;13.11;49.18;98357.06;6988477;28;20211;-83
2023/04/20 12:49:20;;;;;;;7.90;6.90;;;;;;;13.23;49.49;98352.50;7007376;28;20203;-82
2023/04/20 12:52:41;;;;;;;7.57;6.80;;;;;;;12.47;50.55;98355.03;7005211;22;20254;-84
2023/04/20 12:56:04;;;;;;;8.43;7.10;;;;;;;12.39;50.38;98335.59;7036488;28;20259;-82
2023/04/20 12:59:25;;;;;;;9.07;6.93;;;;;;;12.18;52.27;98349.59;7035227;28;20749;-82
2023/04/20 13:02:47;;;;;;;7.33;6.63;;;;;;;12.76;51.35;98343.38;7035307;28;20292;-83
2023/04/20 13:06:10;;;;;;;8.63;7.30;;;;;;;12.95;50.18;98347.72;7035613;28;20332;-84
2023/04/20 13:09:32;;;;;;;7.47;6.60;;;;;;;13.41;49.61;98344.28;7022017;28;20202;-82
2023/04/20 13:12:54;;;;;;;7.63;6.93;;;;;;;12.28;50.34;98328.25;7032239;28;20244;-82
2023/04/20 13:16:16;;;;;;;8.80;7.53;;;;;;;12.94;49.93;98331.69;7006673;28;20772;-83
2023/04/20 13:19:37;;;;;;;9.83;7.77;;;;;;;12.79;50.43;98323.16;7006857;28;20226;-83
2023/04/20 13:23:01;;;;;;;9.00;7.00;;;;;;;13.00;49.93;98328.94;7006053;28;20667;-82
2023/04/20 13:26:22;;;;;;;8.73;6.83;;;;;;;13.00;51.30;98330.78;7006645;28;20241;-83
2023/04/20 13:29:44;;;;;;;8.20;7.23;;;;;;;13.19;50.29;98321.53;7006448;28;20232;-83
2023/04/20 13:33:06;;;;;;;7.83;7.00;;;;;;;13.48;50.63;98331.44;7028330;28;20295;-83
2023/04/20 13:36:28;;;;;;;8.60;6.90;;;;;;;13.37;50.12;98316.84;7035581;28;20237;-83
2023/04/20 13:39:51;;;;;;;8.70;7.73;;;;;;;13.25;50.58;98317.88;7041820;28;20237;-83
2023/04/20 13:43:12;;;;;;;7.97;7.17;;;;;;;13.83;48.70;98329.56;7026457;28;20288;-83
2023/04/20 13:46:34;;;;;;;9.03;6.97;;;;;;;13.29;50.64;98322.59;7035826;28;20344;-81
2023/04/20 13:49:55;;;;;;;9.03;8.17;;;;;;;12.93;49.99;98282.16;7015026;28;20299;-80
2023/04/20 13:53:17;;;;;;;9.27;7.67;;;;;;;13.41;50.31;98314.50;7005578;28;20230;-82
2023/04/20 13:56:40;;;;;;;8.83;7.20;;;;;;;13.81;49.96;98326.28;7004697;28;20314;-83
2023/04/20 14:00:01;;;;;;;7.50;6.80;;;;;;;13.89;48.40;98296.94;7021586;28;20244;-82
2023/04/20 14:03:25;;;;;;;9.83;7.17;;;;;;;13.74;50.06;98329.09;7006844;28;20229;-82
2023/04/20 14:06:46;;;;;;;7.80;7.00;;;;;;;14.24;48.97;98318.56;7030250;28;20297;-82
2023/04/20 14:10:09;;;;;;;10.03;7.50;;;;;;;13.79;50.37;98320.25;7034558;28;20219;-80
2023/04/20 14:13:32;;;;;;;8.93;6.87;;;;;;;12.83;51.41;98316.25;7033870;28;20708;-82
2023/04/20 14:16:53;;;;;;;6.30;5.73;;;;;;;12.33;53.07;98304.88;7033536;28;20728;-82
2023/04/20 14:20:15;;;;;;;6.40;5.80;;;;;;;12.77;52.87;98318.00;7034229;28;20235;-81
2023/04/20 14:23:36;;;;;;;7.90;6.20;;;;;;;13.17;52.64;98296.59;7027959;28;20225;-82
2023/04/20 14:26:58;;;;;;;7.07;6.37;;;;;;;12.81;52.13;98299.44;7034127;28;20292;-81
2023/04/20 14:30:21;;;;;;;6.33;5.67;;;;;;;13.13;52.63;98306.22;7033610;28;20217;-81
2023/04/20 14:33:43;;;;;;;6.70;6.07;;;;;;;12.95;53.17;98312.56;7018785;28;20302;-81
2023/04/20 14:37:05;;;;;;;7.57;5.67;;;;;;;13.31;51.61;98314.25;7010990;28;20311;-83
2023/04/20 14:40:26;;;;;;;7.50;6.10;;;;;;;12.68;54.08;98326.69;7029997;28;20197;-82
2023/04/20 14:43:48;;;;;;;6.40;5.80;;;;;;;13.50;53.07;98337.44;7010225;28;20313;-82
2023/04/20 14:47:11;;;;;;;6.73;6.03;;;;;;;13.17;53.73;98324.47;7004669;28;20280;-82
2023/04/20 14:50:32;;;;;;;6.30;5.70;;;;;;;12.24;54.63;98327.06;7012648;28;20224;-83
2023/04/20 14:53:54;;;;;;;6.30;5.80;;;;;;;12.94;53.64;98334.41;7029951;28;20230;-83
2023/04/20 14:57:15;;;;;;;6.90;6.13;;;;;;;13.20;52.96;98321.31;7032231;28;20209;-84
2023/04/20 15:00:37;;;;;;;6.93;6.23;;;;;;;13.52;52.44;98340.75;7030773;28;20358;-83
2023/04/20 15:04:00;;;;;;;7.03;6.43;;;;;;;12.64;54.23;98339.00;7011188;28;20714;-83
2023/04/20 15:07:21;;;;;;;9.50;6.77;;;;;;;12.85;54.66;98320.38;7014012;28;20655;-83
2023/04/20 15:10:43;;;;;;;8.47;7.23;;;;;;;13.21;54.52;98343.78;7032969;28;20231;-81
2023/04/20 15:14:04;;;;;;;7.30;6.60;;;;;;;13.37;53.54;98343.94;7031869;28;20718;-82
2023/04/20 15:17:26;;;;;;;6.93;6.33;;;;;;;13.49;53.20;98316.84;7030263;28;20708;-82
2023/04/20 15:20:50;;;;;;;8.13;7.33;;;;;;;13.09;54.83;98338.34;7004493;28;20203;-83
2023/04/20 15:24:12;;;;;;;9.10;8.10;;;;;;;13.09;56.68;98337.53;7018863;28;20292;-81
2023/04/20 15:27:34;;;;;;;9.13;7.97;;;;;;;13.51;54.85;98334.50;7031504;28;20350;-81
2023/04/20 15:30:55;;;;;;;10.37;9.37;;;;;;;13.14;55.78;98324.09;7031433;28;20204;-81
2023/04/20 15:34:17;;;;;;;10.43;9.50;;;;;;;13.40;56.08;98316.38;7021637;28;20745;-81
2023/04/20 15:37:40;;;;;;;10.20;8.47;;;;;;;13.46;55.33;98320.03;7012008;28;20267;-81
2023/04/20 15:41:01;;;;;;;9.20;8.17;;;;;;;13.70;54.73;98344.16;7018188;28;20287;-81
2023/04/20 15:44:24;;;;;;;9.63;8.43;;;;;;;13.26;54.87;98298.72;7011833;28;20226;-82
2023/04/20 15:47:46;;;;;;;9.33;8.33;;;;;;;13.83;55.04;98333.09;7027195;28;20293;-82
2023/04/20 15:51:07;;;;;;;12.57;11.37;;;;;;;13.85;55.34;98338.25;7024231;28;20285;-82
2023/04/20 15:54:31;;;;;;;11.23;10.13;;;;;;;13.61;56.37;98347.47;7018894;28;20782;-82
2023/04/20 15:57:55;;;;;;;11.53;10.40;;;;;;;13.78;55.46;98337.56;7031642;28;20309;-82
2023/04/20 16:01:18;;;;;;;11.37;10.20;;;;;;;13.71;55.86;98353.97;7031982;28;20293;-82
2023/04/20 16:04:40;;;;;;;8.63;7.73;;;;;;;13.76;55.04;98340.50;7032136;28;20226;-85
2023/04/20 16:08:01;;;;;;;9.17;8.27;;;;;;;13.31;55.54;98338.63;7033146;28;20261;-83
2023/04/20 16:11:24;;;;;;;10.27;9.27;;;;;;;13.23;56.12;98347.09;7033055;28;20315;-86
2023/04/20 16:14:45;;;;;;;11.57;10.37;;;;;;;12.67;58.00;98344.78;7032621;28;20277;-83
2023/04/20 16:18:07;;;;;;;11.30;9.57;;;;;;;12.49;57.92;98325.88;7033967;28;20274;-83
2023/04/20 16:21:28;;;;;;;11.87;9.50;;;;;;;13.12;56.83;98348.72;7042493;28;20727;-84